sensor_id;sensor_type;location;lat;lon;timestamp;pressure;altitude;pressure_sealevel;temperature;humidity
17254;BME280;32542;52.832;13.816;2022-11-15T00:03:03;101491.97;;;21.39;57.43
17254;BME280;32542;52.832;13.816;2022-11-15T00:06:24;101494.66;;;21.39;57.43
17254;BME280;32542;52.832;13.816;2022-11-15T00:09:45;101497.31;;;21.39;57.45
17254;BME280;32542;52.832;13.816;2022-11-15T00:13:07;101495.56;;;21.38;57.38
17254;BME280;32542;52.832;13.816;2022-11-15T00:16:30;101478.72;;;21.37;57.40
17254;BME280;32542;52.832;13.816;2022-11-15T00:19:51;101479.56;;;21.38;57.28
17254;BME280;32542;52.832;13.816;2022-11-15T00:23:12;101476.97;;;21.36;57.37
17254;BME280;32542;52.832;13.816;2022-11-15T00:26:33;101466.38;;;21.35;57.39
17254;BME280;32542;52.832;13.816;2022-11-15T00:29:55;101469.94;;;21.35;57.43
17254;BME280;32542;52.832;13.816;2022-11-15T00:33:17;101455.81;;;21.33;57.34
17254;BME280;32542;52.832;13.816;2022-11-15T00:36:39;101457.53;;;21.34;57.32
17254;BME280;32542;52.832;13.816;2022-11-15T00:40:01;101446.88;;;21.34;57.32
17254;BME280;32542;52.832;13.816;2022-11-15T00:43:22;101441.59;;;21.33;57.25
17254;BME280;32542;52.832;13.816;2022-11-15T00:46:44;101444.28;;;21.33;57.39
17254;BME280;32542;52.832;13.816;2022-11-15T00:50:07;101444.28;;;21.33;57.32
17254;BME280;32542;52.832;13.816;2022-11-15T00:53:34;101435.47;;;21.31;57.18
17254;BME280;32542;52.832;13.816;2022-11-15T00:56:55;101430.13;;;21.31;57.27
17254;BME280;32542;52.832;13.816;2022-11-15T01:00:17;101429.25;;;21.30;57.29
17254;BME280;32542;52.832;13.816;2022-11-15T01:03:40;101424.81;;;21.31;57.28
17254;BME280;32542;52.832;13.816;2022-11-15T01:07:03;101421.34;;;21.29;57.24
17254;BME280;32542;52.832;13.816;2022-11-15T01:10:25;101408.94;;;21.28;57.24
17254;BME280;32542;52.832;13.816;2022-11-15T01:13:46;101419.59;;;21.28;57.23
17254;BME280;32542;52.832;13.816;2022-11-15T01:17:08;101410.69;;;21.29;57.14
17254;BME280;32542;52.832;13.816;2022-11-15T01:20:29;101420.41;;;21.30;57.08
17254;BME280;32542;52.832;13.816;2022-11-15T01:23:54;101414.19;;;21.29;57.19
17254;BME280;32542;52.832;13.816;2022-11-15T01:27:16;101402.69;;;21.29;57.16
17254;BME280;32542;52.832;13.816;2022-11-15T01:30:37;101403.59;;;21.28;57.18
17254;BME280;32542;52.832;13.816;2022-11-15T01:33:59;101393.84;;;21.28;57.16
17254;BME280;32542;52.832;13.816;2022-11-15T01:37:20;101401.91;;;21.27;57.11
17254;BME280;32542;52.832;13.816;2022-11-15T01:40:43;101393.09;;;21.25;57.23
17254;BME280;32542;52.832;13.816;2022-11-15T01:44:38;101393.09;;;21.25;57.15
17254;BME280;32542;52.832;13.816;2022-11-15T01:48:00;101384.31;;;21.23;57.28
17254;BME280;32542;52.832;13.816;2022-11-15T01:51:24;101378.97;;;21.23;57.24
17254;BME280;32542;52.832;13.816;2022-11-15T01:54:47;101378.97;;;21.23;57.24
17254;BME280;32542;52.832;13.816;2022-11-15T01:58:11;101374.50;;;21.23;57.10
17254;BME280;32542;52.832;13.816;2022-11-15T02:01:33;101369.16;;;21.23;57.20
17254;BME280;32542;52.832;13.816;2022-11-15T02:04:55;101369.13;;;21.25;57.20
17254;BME280;32542;52.832;13.816;2022-11-15T02:08:16;101357.59;;;21.24;57.06
17254;BME280;32542;52.832;13.816;2022-11-15T02:11:41;101371.78;;;21.25;57.06
17254;BME280;32542;52.832;13.816;2022-11-15T02:15:06;101360.25;;;21.24;57.12
17254;BME280;32542;52.832;13.816;2022-11-15T02:18:31;101365.59;;;21.24;57.06
17254;BME280;32542;52.832;13.816;2022-11-15T02:22:00;101363.00;;;21.23;57.17
17254;BME280;32542;52.832;13.816;2022-11-15T02:25:37;101361.25;;;21.22;57.16
17254;BME280;32542;52.832;13.816;2022-11-15T02:29:03;101357.66;;;21.23;57.13
17254;BME280;32542;52.832;13.816;2022-11-15T02:32:34;101355.03;;;21.21;57.14
17254;BME280;32542;52.832;13.816;2022-11-15T02:36:00;101347.84;;;21.23;57.14
17254;BME280;32542;52.832;13.816;2022-11-15T02:39:27;101342.53;;;21.23;57.09
17254;BME280;32542;52.832;13.816;2022-11-15T02:42:53;101340.72;;;21.24;57.14
17254;BME280;32542;52.832;13.816;2022-11-15T02:46:37;101337.19;;;21.23;57.18
17254;BME280;32542;52.832;13.816;2022-11-15T02:50:21;101333.69;;;21.23;57.18
17254;BME280;32542;52.832;13.816;2022-11-15T02:53:45;101335.41;;;21.24;57.13
17254;BME280;32542;52.832;13.816;2022-11-15T02:57:11;101334.59;;;21.22;57.18
17254;BME280;32542;52.832;13.816;2022-11-15T03:00:35;101339.94;;;21.22;57.17
17254;BME280;32542;52.832;13.816;2022-11-15T03:04:11;101340.84;;;21.21;57.17
17254;BME280;32542;52.832;13.816;2022-11-15T03:07:37;101345.25;;;21.22;57.14
17254;BME280;32542;52.832;13.816;2022-11-15T03:11:04;101344.34;;;21.23;57.09
17254;BME280;32542;52.832;13.816;2022-11-15T03:14:31;101331.94;;;21.22;57.15
17254;BME280;32542;52.832;13.816;2022-11-15T03:18:00;101318.63;;;21.22;57.04
17254;BME280;32542;52.832;13.816;2022-11-15T03:21:24;101327.53;;;21.21;56.80
17254;BME280;32542;52.832;13.816;2022-11-15T03:24:52;101326.69;;;21.20;56.86
17254;BME280;32542;52.832;13.816;2022-11-15T03:28:17;101316.88;;;21.21;56.80
17254;BME280;32542;52.832;13.816;2022-11-15T03:31:43;101315.16;;;21.20;56.81
17254;BME280;32542;52.832;13.816;2022-11-15T03:35:13;101308.06;;;21.19;56.66
17254;BME280;32542;52.832;13.816;2022-11-15T03:38:35;101312.50;;;21.20;56.70
17254;BME280;32542;52.832;13.816;2022-11-15T03:42:07;101308.06;;;21.19;56.84
17254;BME280;32542;52.832;13.816;2022-11-15T03:45:37;101313.41;;;21.19;56.87
17254;BME280;32542;52.832;13.816;2022-11-15T03:49:05;101316.94;;;21.19;56.66
17254;BME280;32542;52.832;13.816;2022-11-15T03:52:31;101311.63;;;21.19;56.88
17254;BME280;32542;52.832;13.816;2022-11-15T03:55:53;101309.81;;;21.20;56.72
17254;BME280;32542;52.832;13.816;2022-11-15T03:59:16;101310.69;;;21.20;56.75
17254;BME280;32542;52.832;13.816;2022-11-15T04:02:38;101311.53;;;21.21;56.65
17254;BME280;32542;52.832;13.816;2022-11-15T04:05:59;101307.97;;;21.22;56.71
17254;BME280;32542;52.832;13.816;2022-11-15T04:09:20;101307.09;;;21.21;56.69
17254;BME280;32542;52.832;13.816;2022-11-15T04:12:43;101315.03;;;21.23;56.69
17254;BME280;32542;52.832;13.816;2022-11-15T04:16:08;101306.97;;;21.24;56.52
17254;BME280;32542;52.832;13.816;2022-11-15T04:19:30;101302.53;;;21.25;56.47
17254;BME280;32542;52.832;13.816;2022-11-15T04:23:24;101302.38;;;21.28;56.52
17254;BME280;32542;52.832;13.816;2022-11-15T04:27:03;101301.47;;;21.29;56.50
17254;BME280;32542;52.832;13.816;2022-11-15T04:30:24;101292.53;;;21.30;56.49
17254;BME280;32542;52.832;13.816;2022-11-15T04:33:47;101293.41;;;21.30;56.50
17254;BME280;32542;52.832;13.816;2022-11-15T04:37:08;101301.41;;;21.30;56.42
17254;BME280;32542;52.832;13.816;2022-11-15T04:40:36;101288.94;;;21.31;56.38
17254;BME280;32542;52.832;13.816;2022-11-15T04:43:58;101295.19;;;21.30;56.39
17254;BME280;32542;52.832;13.816;2022-11-15T04:47:19;101287.19;;;21.30;56.40
17254;BME280;32542;52.832;13.816;2022-11-15T04:50:42;101294.31;;;21.29;56.37
17254;BME280;32542;52.832;13.816;2022-11-15T04:54:03;101288.16;;;21.29;56.46
17254;BME280;32542;52.832;13.816;2022-11-15T04:57:25;101297.06;;;21.28;56.50
17254;BME280;32542;52.832;13.816;2022-11-15T05:00:47;101291.72;;;21.28;56.50
17254;BME280;32542;52.832;13.816;2022-11-15T05:04:08;101289.06;;;21.28;56.43
17254;BME280;32542;52.832;13.816;2022-11-15T05:07:43;101289.94;;;21.28;56.50
17254;BME280;32542;52.832;13.816;2022-11-15T05:11:04;101280.19;;;21.27;56.54
17254;BME280;32542;52.832;13.816;2022-11-15T05:14:26;101290.84;;;21.27;56.55
17254;BME280;32542;52.832;13.816;2022-11-15T05:17:47;101286.47;;;21.26;56.41
17254;BME280;32542;52.832;13.816;2022-11-15T05:21:10;101292.69;;;21.27;56.51
17254;BME280;32542;52.832;13.816;2022-11-15T05:24:34;101286.53;;;21.25;56.65
17254;BME280;32542;52.832;13.816;2022-11-15T05:27:56;101283.88;;;21.25;56.61
17254;BME280;32542;52.832;13.816;2022-11-15T05:31:17;101283.91;;;21.23;56.48
17254;BME280;32542;52.832;13.816;2022-11-15T05:34:38;101277.75;;;21.23;56.56
17254;BME280;32542;52.832;13.816;2022-11-15T05:37:59;101291.13;;;21.21;56.68
17254;BME280;32542;52.832;13.816;2022-11-15T05:41:26;101283.13;;;21.21;56.64
17254;BME280;32542;52.832;13.816;2022-11-15T05:44:49;101294.66;;;21.22;56.65
17254;BME280;32542;52.832;13.816;2022-11-15T05:48:11;101292.00;;;21.22;56.70
17254;BME280;32542;52.832;13.816;2022-11-15T05:51:33;101284.91;;;21.21;56.68
17254;BME280;32542;52.832;13.816;2022-11-15T05:54:55;101285.78;;;21.21;56.64
17254;BME280;32542;52.832;13.816;2022-11-15T05:58:20;101279.59;;;21.21;56.70
17254;BME280;32542;52.832;13.816;2022-11-15T06:01:41;101284.06;;;21.20;56.79
17254;BME280;32542;52.832;13.816;2022-11-15T06:05:03;101287.56;;;21.21;56.78
17254;BME280;32542;52.832;13.816;2022-11-15T06:08:25;101289.44;;;21.19;56.68
17254;BME280;32542;52.832;13.816;2022-11-15T06:11:47;101293.84;;;21.20;56.70
17254;BME280;32542;52.832;13.816;2022-11-15T06:15:11;101289.44;;;21.19;56.72
17254;BME280;32542;52.832;13.816;2022-11-15T06:18:33;101298.31;;;21.19;56.73
17254;BME280;32542;52.832;13.816;2022-11-15T06:21:54;101296.59;;;21.18;56.72
17254;BME280;32542;52.832;13.816;2022-11-15T06:25:15;101297.44;;;21.19;56.71
17254;BME280;32542;52.832;13.816;2022-11-15T06:28:37;101299.19;;;21.20;56.73
17254;BME280;32542;52.832;13.816;2022-11-15T06:32:00;101303.63;;;21.19;56.80
17254;BME280;32542;52.832;13.816;2022-11-15T06:35:21;101304.50;;;21.20;56.69
17254;BME280;32542;52.832;13.816;2022-11-15T06:38:43;101299.19;;;21.20;56.71
17254;BME280;32542;52.832;13.816;2022-11-15T06:42:04;101298.31;;;21.19;56.70
17254;BME280;32542;52.832;13.816;2022-11-15T06:45:26;101309.81;;;21.20;56.71
17254;BME280;32542;52.832;13.816;2022-11-15T06:48:51;101315.16;;;21.20;56.66
17254;BME280;32542;52.832;13.816;2022-11-15T06:52:12;101315.16;;;21.20;56.68
17254;BME280;32542;52.832;13.816;2022-11-15T06:55:33;101324.88;;;21.21;56.62
17254;BME280;32542;52.832;13.816;2022-11-15T06:58:55;101324.03;;;21.20;56.73
17254;BME280;32542;52.832;13.816;2022-11-15T07:02:16;101324.88;;;21.21;56.62
17254;BME280;32542;52.832;13.816;2022-11-15T07:05:39;101329.28;;;21.22;56.63
17254;BME280;32542;52.832;13.816;2022-11-15T07:09:02;101321.28;;;21.22;56.71
17254;BME280;32542;52.832;13.816;2022-11-15T07:12:23;101320.38;;;21.23;56.78
17254;BME280;32542;52.832;13.816;2022-11-15T07:15:45;101321.19;;;21.25;56.79
17254;BME280;32542;52.832;13.816;2022-11-15T07:19:06;101317.56;;;21.26;56.84
17254;BME280;32542;52.832;13.816;2022-11-15T07:22:30;101325.56;;;21.26;56.78
17254;BME280;32542;52.832;13.816;2022-11-15T07:25:52;101332.75;;;21.24;56.75
17254;BME280;32542;52.832;13.816;2022-11-15T07:29:14;101329.16;;;21.25;56.67
17254;BME280;32542;52.832;13.816;2022-11-15T07:32:35;101328.28;;;21.24;56.66
17254;BME280;32542;52.832;13.816;2022-11-15T07:35:58;101331.84;;;21.25;56.69
17254;BME280;32542;52.832;13.816;2022-11-15T07:39:23;101332.75;;;21.24;56.67
17254;BME280;32542;52.832;13.816;2022-11-15T07:42:44;101329.19;;;21.23;56.63
17254;BME280;32542;52.832;13.816;2022-11-15T07:46:14;101331.88;;;21.23;56.76
17254;BME280;32542;52.832;13.816;2022-11-15T07:49:35;101342.53;;;21.23;56.71
17254;BME280;32542;52.832;13.816;2022-11-15T07:52:58;101330.16;;;21.22;56.79
17254;BME280;32542;52.832;13.816;2022-11-15T07:56:21;101333.69;;;21.23;56.65
17254;BME280;32542;52.832;13.816;2022-11-15T07:59:43;101329.28;;;21.22;56.72
17254;BME280;32542;52.832;13.816;2022-11-15T08:03:04;101322.19;;;21.21;56.75
17254;BME280;32542;52.832;13.816;2022-11-15T08:06:26;101321.34;;;21.20;56.72
17254;BME280;32542;52.832;13.816;2022-11-15T08:09:47;101316.94;;;21.19;56.79
17254;BME280;32542;52.832;13.816;2022-11-15T08:13:11;101300.09;;;21.19;56.71
17254;BME280;32542;52.832;13.816;2022-11-15T08:16:33;101312.56;;;21.18;56.77
17254;BME280;32542;52.832;13.816;2022-11-15T08:19:55;101306.38;;;21.18;56.77
17254;BME280;32542;52.832;13.816;2022-11-15T08:23:16;101306.38;;;21.18;56.84
17254;BME280;32542;52.832;13.816;2022-11-15T08:26:38;101306.38;;;21.18;56.74
17254;BME280;32542;52.832;13.816;2022-11-15T08:30:01;101304.63;;;21.17;56.85
17254;BME280;32542;52.832;13.816;2022-11-15T08:33:23;101306.38;;;21.18;56.87
17254;BME280;32542;52.832;13.816;2022-11-15T08:36:44;101311.69;;;21.18;56.89
17254;BME280;32542;52.832;13.816;2022-11-15T08:40:06;101310.81;;;21.17;56.81
17254;BME280;32542;52.832;13.816;2022-11-15T08:43:27;101307.28;;;21.17;56.79
17254;BME280;32542;52.832;13.816;2022-11-15T08:46:51;101306.38;;;21.18;56.86
17254;BME280;32542;52.832;13.816;2022-11-15T08:50:12;101295.78;;;21.16;56.84
17254;BME280;32542;52.832;13.816;2022-11-15T08:53:34;101297.56;;;21.16;56.82
17254;BME280;32542;52.832;13.816;2022-11-15T08:56:55;101293.97;;;21.17;56.72
17254;BME280;32542;52.832;13.816;2022-11-15T09:00:17;101290.47;;;21.16;56.79
17254;BME280;32542;52.832;13.816;2022-11-15T09:03:41;101293.03;;;21.18;56.72
17254;BME280;32542;52.832;13.816;2022-11-15T09:07:03;101297.44;;;21.19;56.82
17254;BME280;32542;52.832;13.816;2022-11-15T09:10:24;101306.22;;;21.21;56.65
17254;BME280;32542;52.832;13.816;2022-11-15T09:13:45;101299.97;;;21.22;56.71
17254;BME280;32542;52.832;13.816;2022-11-15T09:17:08;101302.63;;;21.22;56.66
17254;BME280;32542;52.832;13.816;2022-11-15T09:20:31;101307.06;;;21.23;56.59
17254;BME280;32542;52.832;13.816;2022-11-15T09:23:53;101308.84;;;21.22;56.65
17254;BME280;32542;52.832;13.816;2022-11-15T09:27:14;101307.06;;;21.23;56.55
17254;BME280;32542;52.832;13.816;2022-11-15T09:30:36;101307.06;;;21.23;56.39
17254;BME280;32542;52.832;13.816;2022-11-15T09:33:57;101317.75;;;21.21;55.38
17254;BME280;32542;52.832;13.816;2022-11-15T09:37:20;101320.59;;;21.17;53.29
17254;BME280;32542;52.832;13.816;2022-11-15T09:40:41;101319.00;;;21.13;51.60
17254;BME280;32542;52.832;13.816;2022-11-15T09:44:13;101312.06;;;21.09;51.64
17254;BME280;32542;52.832;13.816;2022-11-15T09:48:03;101313.03;;;21.06;50.94
17254;BME280;32542;52.832;13.816;2022-11-15T09:51:35;101317.56;;;21.04;49.51
17254;BME280;32542;52.832;13.816;2022-11-15T09:54:50;101305.13;;;21.05;47.17
17254;BME280;32542;52.832;13.816;2022-11-15T09:58:03;101305.84;;;21.08;45.75
17254;BME280;32542;52.832;13.816;2022-11-15T10:01:19;101295.97;;;21.12;44.91
17254;BME280;32542;52.832;13.816;2022-11-15T10:04:31;101297.56;;;21.16;44.73
17254;BME280;32542;52.832;13.816;2022-11-15T10:07:40;101290.31;;;21.19;45.15
17254;BME280;32542;52.832;13.816;2022-11-15T10:10:47;101290.13;;;21.24;45.45
17254;BME280;32542;52.832;13.816;2022-11-15T10:14:15;101280.97;;;21.31;45.85
17254;BME280;32542;52.832;13.816;2022-11-15T10:17:35;101288.53;;;21.40;46.24
17254;BME280;32542;52.832;13.816;2022-11-15T10:20:47;101275.00;;;21.46;46.49
17254;BME280;32542;52.832;13.816;2022-11-15T10:23:51;101264.06;;;21.52;46.89
17254;BME280;32542;52.832;13.816;2022-11-15T10:26:56;101263.00;;;21.56;47.07
17254;BME280;32542;52.832;13.816;2022-11-15T10:30:00;101258.34;;;21.61;47.30
17254;BME280;32542;52.832;13.816;2022-11-15T10:33:18;101253.66;;;21.66;47.48
17254;BME280;32542;52.832;13.816;2022-11-15T10:36:24;101252.66;;;21.68;47.71
17254;BME280;32542;52.832;13.816;2022-11-15T10:39:27;101253.53;;;21.69;47.87
17254;BME280;32542;52.832;13.816;2022-11-15T10:42:32;101257.00;;;21.71;48.15
17254;BME280;32542;52.832;13.816;2022-11-15T10:45:35;101257.88;;;21.71;48.24
17254;BME280;32542;52.832;13.816;2022-11-15T10:48:38;101255.13;;;21.73;48.46
17254;BME280;32542;52.832;13.816;2022-11-15T10:51:45;101256.06;;;21.72;48.61
17254;BME280;32542;52.832;13.816;2022-11-15T10:54:52;101249.88;;;21.71;48.74
17254;BME280;32542;52.832;13.816;2022-11-15T10:58:02;101242.72;;;21.72;49.03
17254;BME280;32542;52.832;13.816;2022-11-15T11:01:15;101224.13;;;21.70;49.13
17254;BME280;32542;52.832;13.816;2022-11-15T11:04:18;101229.56;;;21.69;49.06
17254;BME280;32542;52.832;13.816;2022-11-15T11:07:23;101225.13;;;21.68;49.30
17254;BME280;32542;52.832;13.816;2022-11-15T11:10:27;101223.41;;;21.67;49.44
17254;BME280;32542;52.832;13.816;2022-11-15T11:13:52;101222.63;;;21.65;49.67
17254;BME280;32542;52.832;13.816;2022-11-15T11:17:00;101216.53;;;21.61;49.73
17254;BME280;32542;52.832;13.816;2022-11-15T11:20:11;101219.28;;;21.60;49.88
17254;BME280;32542;52.832;13.816;2022-11-15T11:23:31;101207.91;;;21.56;50.15
17254;BME280;32542;52.832;13.816;2022-11-15T11:26:42;101210.63;;;21.55;50.29
17254;BME280;32542;52.832;13.816;2022-11-15T11:29:58;101207.16;;;21.53;50.57
17254;BME280;32542;52.832;13.816;2022-11-15T11:33:10;101209.03;;;21.51;50.64
17254;BME280;32542;52.832;13.816;2022-11-15T11:36:21;101214.44;;;21.49;50.73
17254;BME280;32542;52.832;13.816;2022-11-15T11:39:33;101210.09;;;21.47;50.96
17254;BME280;32542;52.832;13.816;2022-11-15T11:42:46;101202.19;;;21.45;51.06
17254;BME280;32542;52.832;13.816;2022-11-15T11:46:12;101203.97;;;21.45;51.31
17254;BME280;32542;52.832;13.816;2022-11-15T11:49:21;101196.03;;;21.43;51.37
17254;BME280;32542;52.832;13.816;2022-11-15T11:52:31;101200.50;;;21.43;51.48
17254;BME280;32542;52.832;13.816;2022-11-15T11:55:38;101193.47;;;21.42;51.57
17254;BME280;32542;52.832;13.816;2022-11-15T11:58:44;101190.84;;;21.40;51.78
17254;BME280;32542;52.832;13.816;2022-11-15T12:01:50;101199.78;;;21.39;51.83
17254;BME280;32542;52.832;13.816;2022-11-15T12:05:03;101193.56;;;21.39;51.97
17254;BME280;32542;52.832;13.816;2022-11-15T12:08:22;101184.78;;;21.37;52.08
17254;BME280;32542;52.832;13.816;2022-11-15T12:11:32;101185.72;;;21.36;52.05
17254;BME280;32542;52.832;13.816;2022-11-15T12:14:41;101185.78;;;21.34;52.19
17254;BME280;32542;52.832;13.816;2022-11-15T12:17:47;101177.78;;;21.34;52.19
17254;BME280;32542;52.832;13.816;2022-11-15T12:20:54;101182.25;;;21.34;52.30
17254;BME280;32542;52.832;13.816;2022-11-15T12:24:04;101173.41;;;21.33;52.33
17254;BME280;32542;52.832;13.816;2022-11-15T12:27:18;101182.31;;;21.32;52.37
17254;BME280;32542;52.832;13.816;2022-11-15T12:30:31;101167.22;;;21.33;52.38
17254;BME280;32542;52.832;13.816;2022-11-15T12:33:43;101170.66;;;21.35;55.96
17254;BME280;32542;52.832;13.816;2022-11-15T12:36:48;101167.06;;;21.36;56.51
17254;BME280;32542;52.832;13.816;2022-11-15T12:40:17;101168.88;;;21.35;55.66
17254;BME280;32542;52.832;13.816;2022-11-15T12:43:37;101165.19;;;21.38;58.37
17254;BME280;32542;52.832;13.816;2022-11-15T12:47:03;101168.66;;;21.40;58.66
17254;BME280;32542;52.832;13.816;2022-11-15T12:50:16;101165.97;;;21.40;57.67
17254;BME280;32542;52.832;13.816;2022-11-15T12:53:26;101149.09;;;21.41;58.71
17254;BME280;32542;52.832;13.816;2022-11-15T12:56:30;101150.84;;;21.42;60.23
17254;BME280;32542;52.832;13.816;2022-11-15T12:59:48;101147.13;;;21.44;60.58
17254;BME280;32542;52.832;13.816;2022-11-15T13:03:27;101152.41;;;21.46;61.64
17254;BME280;32542;52.832;13.816;2022-11-15T13:06:38;101147.09;;;21.46;61.49
17254;BME280;32542;52.832;13.816;2022-11-15T13:09:55;101142.59;;;21.46;59.62
17254;BME280;32542;52.832;13.816;2022-11-15T13:12:58;101134.69;;;21.45;58.44
17254;BME280;32542;52.832;13.816;2022-11-15T13:16:02;101143.47;;;21.47;57.58
17254;BME280;32542;52.832;13.816;2022-11-15T13:19:10;101142.56;;;21.48;57.28
17254;BME280;32542;52.832;13.816;2022-11-15T13:22:14;101140.72;;;21.48;57.27
17254;BME280;32542;52.832;13.816;2022-11-15T13:26:12;101145.06;;;21.51;57.05
17254;BME280;32542;52.832;13.816;2022-11-15T13:29:19;101144.94;;;21.54;56.82
17254;BME280;32542;52.832;13.816;2022-11-15T13:32:22;101146.66;;;21.55;56.77
17254;BME280;32542;52.832;13.816;2022-11-15T13:35:27;101143.06;;;21.56;56.84
17254;BME280;32542;52.832;13.816;2022-11-15T13:38:33;101146.53;;;21.58;56.65
17254;BME280;32542;52.832;13.816;2022-11-15T13:41:45;101146.53;;;21.58;56.72
17254;BME280;32542;52.832;13.816;2022-11-15T13:44:59;101147.53;;;21.55;56.72
17254;BME280;32542;52.832;13.816;2022-11-15T13:48:03;101141.31;;;21.55;56.61
17254;BME280;32542;52.832;13.816;2022-11-15T13:51:13;101134.28;;;21.54;56.58
17254;BME280;32542;52.832;13.816;2022-11-15T13:54:23;101137.75;;;21.56;56.66
17254;BME280;32542;52.832;13.816;2022-11-15T13:57:29;101139.53;;;21.55;56.79
17254;BME280;32542;52.832;13.816;2022-11-15T14:00:36;101143.94;;;21.56;56.84
17254;BME280;32542;52.832;13.816;2022-11-15T14:03:47;101144.66;;;21.60;57.11
17254;BME280;32542;52.832;13.816;2022-11-15T14:06:55;101148.91;;;21.64;57.21
17254;BME280;32542;52.832;13.816;2022-11-15T14:10:17;101149.59;;;21.69;57.22
17254;BME280;32542;52.832;13.816;2022-11-15T14:13:27;101137.75;;;21.74;57.29
17254;BME280;32542;52.832;13.816;2022-11-15T14:16:33;101129.63;;;21.77;57.28
17254;BME280;32542;52.832;13.816;2022-11-15T14:19:39;101127.63;;;21.83;57.20
17254;BME280;32542;52.832;13.816;2022-11-15T14:22:51;101126.63;;;21.85;57.08
17254;BME280;32542;52.832;13.816;2022-11-15T14:25:56;101117.56;;;21.89;57.03
17254;BME280;32542;52.832;13.816;2022-11-15T14:29:23;101125.44;;;21.92;56.94
17254;BME280;32542;52.832;13.816;2022-11-15T14:32:28;101121.81;;;21.93;57.09
17254;BME280;32542;52.832;13.816;2022-11-15T14:35:31;101128.72;;;21.97;56.95
17254;BME280;32542;52.832;13.816;2022-11-15T14:38:34;101123.34;;;21.99;56.33
17254;BME280;32542;52.832;13.816;2022-11-15T14:41:39;101107.25;;;22.00;56.31
17254;BME280;32542;52.832;13.816;2022-11-15T14:44:42;101107.25;;;22.00;56.25
17254;BME280;32542;52.832;13.816;2022-11-15T14:47:47;101101.06;;;22.00;56.06
17254;BME280;32542;52.832;13.816;2022-11-15T14:50:50;101093.13;;;21.98;56.05
17254;BME280;32542;52.832;13.816;2022-11-15T14:53:53;101094.06;;;21.97;55.97
17254;BME280;32542;52.832;13.816;2022-11-15T14:56:58;101092.41;;;21.95;55.99
17254;BME280;32542;52.832;13.816;2022-11-15T15:00:01;101109.34;;;21.94;55.91
17254;BME280;32542;52.832;13.816;2022-11-15T15:03:13;101098.75;;;21.92;56.07
17254;BME280;32542;52.832;13.816;2022-11-15T15:06:16;101096.19;;;21.91;55.98
17254;BME280;32542;52.832;13.816;2022-11-15T15:09:19;101086.50;;;21.88;55.97
17254;BME280;32542;52.832;13.816;2022-11-15T15:12:23;101092.78;;;21.87;55.95
17254;BME280;32542;52.832;13.816;2022-11-15T15:15:31;101096.38;;;21.86;55.89
17254;BME280;32542;52.832;13.816;2022-11-15T15:18:34;101094.72;;;21.84;55.90
17254;BME280;32542;52.832;13.816;2022-11-15T15:21:37;101092.13;;;21.82;55.94
17254;BME280;32542;52.832;13.816;2022-11-15T15:24:40;101095.69;;;21.81;55.88
17254;BME280;32542;52.832;13.816;2022-11-15T15:27:45;101093.16;;;21.78;55.88
17254;BME280;32542;52.832;13.816;2022-11-15T15:30:48;101086.13;;;21.77;55.92
17254;BME280;32542;52.832;13.816;2022-11-15T15:33:51;101087.03;;;21.76;55.96
17254;BME280;32542;52.832;13.816;2022-11-15T15:37:07;101085.31;;;21.75;55.75
17254;BME280;32542;52.832;13.816;2022-11-15T15:40:13;101092.53;;;21.73;56.23
17254;BME280;32542;52.832;13.816;2022-11-15T15:43:18;101090.78;;;21.72;56.21
17254;BME280;32542;52.832;13.816;2022-11-15T15:46:22;101088.13;;;21.72;56.40
17254;BME280;32542;52.832;13.816;2022-11-15T15:49:25;101081.94;;;21.71;56.47
17254;BME280;32542;52.832;13.816;2022-11-15T15:52:27;101071.34;;;21.70;56.52
17254;BME280;32542;52.832;13.816;2022-11-15T15:55:31;101076.66;;;21.70;56.54
17254;BME280;32542;52.832;13.816;2022-11-15T15:58:35;101072.28;;;21.69;56.70
17254;BME280;32542;52.832;13.816;2022-11-15T16:01:38;101074.09;;;21.68;56.85
17254;BME280;32542;52.832;13.816;2022-11-15T16:04:41;101074.16;;;21.67;56.83
17254;BME280;32542;52.832;13.816;2022-11-15T16:07:44;101068.84;;;21.67;56.80
17254;BME280;32542;52.832;13.816;2022-11-15T16:10:49;101068.03;;;21.65;56.76
17254;BME280;32542;52.832;13.816;2022-11-15T16:13:54;101075.16;;;21.64;56.78
17254;BME280;32542;52.832;13.816;2022-11-15T16:16:57;101082.28;;;21.64;56.78
17254;BME280;32542;52.832;13.816;2022-11-15T16:20:00;101071.63;;;21.64;56.73
17254;BME280;32542;52.832;13.816;2022-11-15T16:23:05;101073.41;;;21.63;56.61
17254;BME280;32542;52.832;13.816;2022-11-15T16:26:17;101065.38;;;21.65;56.72
17254;BME280;32542;52.832;13.816;2022-11-15T16:29:24;101047.63;;;21.64;57.08
17254;BME280;32542;52.832;13.816;2022-11-15T16:32:27;101064.41;;;21.66;57.43
17254;BME280;32542;52.832;13.816;2022-11-15T16:35:30;101062.63;;;21.66;57.50
17254;BME280;32542;52.832;13.816;2022-11-15T16:38:33;101057.38;;;21.65;57.31
17254;BME280;32542;52.832;13.816;2022-11-15T16:41:37;101052.03;;;21.65;57.25
17254;BME280;32542;52.832;13.816;2022-11-15T16:44:41;101046.72;;;21.65;57.12
17254;BME280;32542;52.832;13.816;2022-11-15T16:47:45;101056.59;;;21.63;57.09
17254;BME280;32542;52.832;13.816;2022-11-15T16:50:48;101060.16;;;21.62;56.91
17254;BME280;32542;52.832;13.816;2022-11-15T16:53:51;101058.47;;;21.61;56.84
17254;BME280;32542;52.832;13.816;2022-11-15T16:56:54;101057.50;;;21.62;56.71
17254;BME280;32542;52.832;13.816;2022-11-15T16:59:58;101056.63;;;21.61;56.71